Time;durP1;ratioP1;P1;durP2;ratioP2;P2;SDS_P1;SDS_P2;PMS_P1;PMS_P2;Temp;Humidity;BMP_temperature;BMP_pressure;BME280_temperature;BME280_humidity;BME280_pressure;Samples;Min_cycle;Max_cycle;Signal;HPM_P1;HPM_P2
2023/04/30 19:15:52;;;;;;;;;22.75;22.75;;;;;15.31;53.94;100918.25;5078357;27;45673;-75
2023/04/30 19:18:19;;;;;;;;;19.00;19.00;;;;;15.28;53.56;100911.34;5063962;27;45434;-83
2023/04/30 19:20:58;;;;;;;;;25.25;25.25;;;;;15.37;53.47;100909.97;5069158;28;45410;-80
2023/04/30 19:23:24;;;;;;;;;16.50;16.50;;;;;15.52;53.72;100915.41;5071751;27;45512;-76
2023/04/30 19:25:50;;;;;;;;;19.25;19.00;;;;;15.63;53.08;100924.44;5060878;27;46077;-77
2023/04/30 19:28:15;;;;;;;;;17.00;17.00;;;;;15.69;53.09;100917.94;5070761;28;45447;-77
2023/04/30 19:30:41;;;;;;;;;18.25;18.25;;;;;15.82;52.45;100923.41;5070122;28;45198;-74
2023/04/30 19:33:07;;;;;;;;;21.00;21.00;;;;;15.90;52.72;100920.34;5070754;27;45293;-75
2023/04/30 19:35:35;;;;;;;;;27.50;27.50;;;;;15.97;52.42;100923.53;5070766;28;46002;-75
2023/04/30 19:38:01;;;;;;;;;38.00;34.25;;;;;16.03;52.05;100921.34;5071255;28;45364;-74
2023/04/30 19:40:26;;;;;;;;;26.00;26.00;;;;;16.10;52.27;100918.34;5069426;28;45414;-71
2023/04/30 19:42:52;;;;;;;;;19.75;19.75;;;;;16.15;51.83;100919.81;5062124;28;45394;-72
2023/04/30 19:45:18;;;;;;;;;24.00;23.50;;;;;16.19;52.20;100923.97;5070480;28;45413;-72
2023/04/30 19:47:43;;;;;;;;;16.00;16.00;;;;;16.23;51.73;100919.34;5070961;28;45288;-76
2023/04/30 19:50:09;;;;;;;;;21.50;21.50;;;;;16.29;51.63;100924.28;5070572;28;45322;-72
2023/04/30 19:52:34;;;;;;;;;21.50;21.50;;;;;16.31;51.39;100926.84;5069177;28;45523;-72
2023/04/30 19:54:59;;;;;;;;;24.00;23.25;;;;;16.34;51.67;100935.47;5068698;28;45464;-70
2023/04/30 19:57:25;;;;;;;;;45.50;39.50;;;;;16.34;51.79;100921.38;5070327;28;45424;-74
2023/04/30 19:59:50;;;;;;;;;26.00;26.00;;;;;16.38;51.62;100937.94;5068594;28;45458;-79
2023/04/30 20:02:15;;;;;;;;;24.00;24.00;;;;;16.36;51.49;100932.75;5062127;28;45698;-74
2023/04/30 20:04:41;;;;;;;;;24.25;24.25;;;;;16.38;51.55;100937.94;5058078;28;46247;-76
2023/04/30 20:07:06;;;;;;;;;21.00;20.00;;;;;16.37;51.48;100937.13;5069122;27;45373;-73
2023/04/30 20:09:31;;;;;;;;;24.25;24.25;;;;;16.35;51.68;100936.34;5056565;27;45412;-74
2023/04/30 20:11:57;;;;;;;;;23.00;22.50;;;;;16.36;51.97;100943.38;5060749;27;45280;-72
2023/04/30 20:14:22;;;;;;;;;23.25;23.25;;;;;16.26;51.93;100928.94;5092327;27;45443;-74
2023/04/30 20:16:52;;;;;;;;;18.75;18.75;;;;;16.31;51.52;100934.81;5078889;27;45445;-74
2023/04/30 20:19:21;;;;;;;;;25.50;24.50;;;;;16.32;51.69;100942.69;5089662;27;45330;-73
2023/04/30 20:21:50;;;;;;;;;23.50;23.50;;;;;16.32;51.59;100939.19;5071872;27;45495;-75
2023/04/30 20:24:16;;;;;;;;;39.25;35.25;;;;;16.26;51.66;100936.91;5069751;27;45696;-80
2023/04/30 20:26:41;;;;;;;;;26.50;25.75;;;;;16.21;51.54;100923.88;5065128;27;45412;-75
2023/04/30 20:29:07;;;;;;;;;24.50;24.50;;;;;16.30;51.89;100952.53;5044614;27;45364;-73
2023/04/30 20:31:33;;;;;;;;;24.00;24.00;;;;;16.24;51.60;100939.63;5069116;27;45620;-80
2023/04/30 20:33:58;;;;;;;;;32.00;30.75;;;;;16.27;51.73;100943.91;5076231;28;46229;-74
2023/04/30 20:36:23;;;;;;;;;29.75;29.00;;;;;16.24;51.92;100941.44;5065384;27;45367;-73
2023/04/30 20:38:52;;;;;;;;;31.00;30.25;;;;;16.23;51.93;100951.19;5070800;27;45513;-73
2023/04/30 20:41:17;;;;;;;;;29.75;29.75;;;;;16.20;52.08;100938.97;5068685;27;45281;-76
2023/04/30 20:43:43;;;;;;;;;32.00;30.00;;;;;16.29;52.08;100955.28;5070197;27;46143;-74
2023/04/30 20:46:08;;;;;;;;;35.00;33.00;;;;;16.30;52.36;100957.00;5058221;27;45411;-72
2023/04/30 20:48:34;;;;;;;;;31.50;30.50;;;;;16.31;52.34;100950.75;5056289;28;45369;-71
2023/04/30 20:50:59;;;;;;;;;26.25;25.25;;;;;16.29;52.23;100948.16;5058791;27;45434;-73
2023/04/30 20:53:25;;;;;;;;;30.25;30.00;;;;;16.31;52.38;100951.59;5053929;28;46684;-72
2023/04/30 20:55:50;;;;;;;;;30.50;30.00;;;;;16.31;52.40;100954.25;5055437;27;45210;-71
2023/04/30 20:58:16;;;;;;;;;30.50;30.00;;;;;16.30;52.28;100949.03;5056963;27;45608;-73
2023/04/30 21:00:41;;;;;;;;;32.25;30.25;;;;;16.32;52.32;100963.06;5069667;27;45307;-73
2023/04/30 21:03:08;;;;;;;;;29.75;29.25;;;;;16.31;52.61;100954.25;5056414;28;48891;-77
2023/04/30 21:05:33;;;;;;;;;35.75;33.00;;;;;16.28;53.21;100948.28;5055848;27;45436;-74
2023/04/30 21:08:00;;;;;;;;;43.75;38.00;;;;;16.28;52.70;100949.13;5055670;28;45429;-74
2023/04/30 21:10:27;;;;;;;;;38.25;35.25;;;;;16.31;52.94;100945.44;5055120;27;45444;-76
2023/04/30 21:12:52;;;;;;;;;32.25;30.25;;;;;16.30;52.92;100952.53;5059817;27;46212;-76
2023/04/30 21:15:18;;;;;;;;;27.00;26.00;;;;;16.28;53.33;100935.00;5076252;27;45155;-74
2023/04/30 21:17:43;;;;;;;;;24.00;23.25;;;;;16.27;52.61;100935.94;5076419;28;45204;-76
2023/04/30 21:20:09;;;;;;;;;27.75;27.75;;;;;16.26;52.80;100931.59;5070245;27;45496;-76
2023/04/30 21:22:34;;;;;;;;;25.25;25.25;;;;;16.24;52.70;100930.81;5075785;27;45350;-77
2023/04/30 21:25:00;;;;;;;;;24.00;24.00;;;;;16.20;52.61;100931.00;5058343;28;45220;-76
2023/04/30 21:27:25;;;;;;;;;31.00;30.00;;;;;16.14;52.72;100928.69;5054032;28;45667;-76
2023/04/30 21:29:51;;;;;;;;;29.50;29.25;;;;;16.13;52.88;100924.34;5053805;28;45425;-76
2023/04/30 21:32:16;;;;;;;;;26.00;26.00;;;;;16.11;53.00;100923.56;5054240;28;46114;-74
2023/04/30 21:34:42;;;;;;;;;27.25;27.25;;;;;16.01;52.97;100907.31;5054368;28;45367;-75
2023/04/30 21:37:08;;;;;;;;;41.50;36.25;;;;;16.06;53.09;100917.69;5053449;28;45379;-75
2023/04/30 21:39:33;;;;;;;;;26.75;26.75;;;;;15.98;53.44;100901.34;5054210;28;45463;-73
2023/04/30 21:41:59;;;;;;;;;30.75;30.25;;;;;16.00;53.39;100918.03;5035764;28;48155;-75
2023/04/30 21:44:24;;;;;;;;;29.50;29.00;;;;;15.96;54.15;100913.84;5054638;28;45511;-74
2023/04/30 21:46:49;;;;;;;;;30.25;29.50;;;;;15.94;53.78;100907.78;5055056;28;45407;-74
2023/04/30 21:49:15;;;;;;;;;27.00;26.75;;;;;15.90;54.12;100913.25;5036511;28;45397;-76
2023/04/30 21:51:41;;;;;;;;;29.25;29.25;;;;;15.85;53.89;100907.31;5054497;28;45465;-74
2023/04/30 21:54:06;;;;;;;;;33.00;31.75;;;;;15.84;54.11;100904.75;5054731;28;45399;-74
2023/04/30 21:56:32;;;;;;;;;26.00;26.00;;;;;15.80;53.88;100901.41;5037050;28;45308;-75
2023/04/30 21:58:57;;;;;;;;;32.50;31.50;;;;;15.78;54.61;100900.66;5055364;28;45237;-75
2023/04/30 22:01:28;;;;;;;;;34.00;31.75;;;;;15.70;54.76;100894.94;5036630;28;57179;-72
2023/04/30 22:03:54;;;;;;;;;36.25;33.50;;;;;15.62;54.90;100892.72;5053851;28;45365;-75
2023/04/30 22:06:19;;;;;;;;;36.75;33.25;;;;;15.63;55.23;100894.44;5055245;28;45332;-77
2023/04/30 22:08:44;;;;;;;;;33.25;30.75;;;;;15.60;54.82;100891.97;5055367;28;45331;-75
2023/04/30 22:11:10;;;;;;;;;29.00;29.00;;;;;15.58;55.58;100891.19;5054372;28;46055;-74
2023/04/30 22:13:36;;;;;;;;;30.50;30.00;;;;;15.52;55.31;100889.72;5053812;28;45595;-74
2023/04/30 22:16:02;;;;;;;;;29.50;29.50;;;;;15.46;55.53;100887.41;5054748;28;45373;-75
2023/04/30 22:18:27;;;;;;;;;27.25;24.50;;;;;15.44;55.43;100891.94;5055443;28;45667;-76
2023/04/30 22:20:53;;;;;;;;;29.25;29.00;;;;;15.41;55.75;100893.00;5054465;28;46183;-74
2023/04/30 22:23:21;;;;;;;;;27.50;27.50;;;;;15.41;55.84;100892.13;5054776;28;45238;-76
2023/04/30 22:25:47;;;;;;;;;30.75;30.50;;;;;15.34;55.85;100881.00;5054741;28;45301;-76
2023/04/30 22:28:15;;;;;;;;;31.25;30.50;;;;;15.27;56.19;100875.19;5037234;28;45906;-75
2023/04/30 22:30:41;;;;;;;;;33.00;31.50;;;;;15.30;56.39;100890.06;5054804;28;46119;-75
2023/04/30 22:33:07;;;;;;;;;33.75;32.00;;;;;15.24;56.73;100883.31;5054297;28;45249;-77
2023/04/30 22:35:35;;;;;;;;;32.25;31.00;;;;;15.21;56.48;100883.47;5054371;28;45450;-75
2023/04/30 22:38:02;;;;;;;;;35.50;33.00;;;;;15.20;56.85;100887.06;5054568;28;45194;-74
2023/04/30 22:40:27;;;;;;;;;35.00;33.00;;;;;15.14;57.05;100882.09;5054680;28;46240;-73
2023/04/30 22:42:53;;;;;;;;;36.50;34.00;;;;;15.16;57.36;100889.03;5054374;28;45321;-76
2023/04/30 22:45:18;;;;;;;;;40.50;35.50;;;;;15.13;57.67;100893.66;5054732;28;45380;-73
2023/04/30 22:47:44;;;;;;;;;40.50;36.00;;;;;15.11;57.71;100890.22;5055150;28;45513;-74
2023/04/30 22:50:09;;;;;;;;;40.50;35.50;;;;;15.09;57.95;100889.44;5035875;28;47392;-73
2023/04/30 22:52:35;;;;;;;;;34.75;32.75;;;;;15.09;57.99;100892.09;5053834;28;45295;-75
2023/04/30 22:55:01;;;;;;;;;37.75;34.00;;;;;15.11;57.91;100896.38;5053627;28;45333;-75
2023/04/30 22:57:27;;;;;;;;;36.25;33.00;;;;;15.11;58.15;100884.94;5054037;28;45337;-73
2023/04/30 22:59:52;;;;;;;;;35.75;33.25;;;;;15.09;57.97;100886.81;5053771;28;45336;-75
2023/04/30 23:02:18;;;;;;;;;38.75;34.75;;;;;15.12;58.03;100897.22;5053974;28;45419;-75
2023/04/30 23:04:44;;;;;;;;;32.50;31.50;;;;;15.10;58.10;100885.88;5054393;28;45287;-75
2023/04/30 23:07:10;;;;;;;;;34.75;32.75;;;;;15.03;58.32;100872.94;5054175;28;45514;-75
2023/04/30 23:09:35;;;;;;;;;36.75;33.75;;;;;15.12;58.32;100881.34;5053795;28;46331;-75
2023/04/30 23:12:01;;;;;;;;;34.25;32.25;;;;;15.12;58.40;100884.81;5053816;28;46243;-74
2023/04/30 23:14:27;;;;;;;;;27.00;26.75;;;;;15.10;58.42;100873.47;5053620;28;45255;-73
2023/04/30 23:16:52;;;;;;;;;31.50;30.75;;;;;15.13;58.63;100883.03;5054152;28;45344;-72
2023/04/30 23:19:17;;;;;;;;;31.50;30.50;;;;;15.12;58.52;100878.69;5053851;28;46457;-74
2023/04/30 23:21:42;;;;;;;;;33.00;31.75;;;;;15.13;58.55;100872.44;5054262;28;45326;-72
2023/04/30 23:24:08;;;;;;;;;29.75;29.50;;;;;15.14;58.57;100874.16;5053814;28;45303;-72
2023/04/30 23:26:34;;;;;;;;;33.25;31.75;;;;;15.14;58.67;100877.66;5053962;28;45351;-74
2023/04/30 23:28:59;;;;;;;;;31.75;30.75;;;;;15.16;58.37;100869.63;5053539;28;45398;-76
2023/04/30 23:31:25;;;;;;;;;35.50;32.50;;;;;15.14;58.64;100866.22;5053560;28;45435;-74
2023/04/30 23:33:51;;;;;;;;;32.00;31.00;;;;;15.15;58.43;100867.91;5053696;28;45379;-73
2023/04/30 23:36:16;;;;;;;;;36.25;33.50;;;;;15.14;58.85;100866.22;5035772;28;45240;-74
2023/04/30 23:38:41;;;;;;;;;32.50;31.25;;;;;15.14;58.70;100863.56;5053006;28;46033;-73
2023/04/30 23:41:07;;;;;;;;;28.50;28.50;;;;;15.12;58.91;100858.34;5053693;28;45257;-74
2023/04/30 23:43:33;;;;;;;;;30.25;30.00;;;;;15.13;58.94;100859.19;5054216;28;45422;-74
2023/04/30 23:45:58;;;;;;;;;30.50;29.50;;;;;15.10;59.45;100862.03;5053860;28;48525;-73
2023/04/30 23:48:24;;;;;;;;;32.25;30.25;;;;;15.06;59.12;100860.47;5053337;28;45405;-73
2023/04/30 23:50:59;;;;;;;;;30.25;30.25;;;;;15.03;59.18;100865.00;5035099;28;45718;-73
2023/04/30 23:53:26;;;;;;;;;32.25;31.25;;;;;14.99;59.34;100863.47;5053311;28;46085;-74
2023/04/30 23:55:51;;;;;;;;;36.25;32.50;;;;;14.95;59.29;100859.28;5053574;28;45503;-73
2023/04/30 23:58:17;;;;;;;;;35.75;32.25;;;;;14.87;59.40;100849.06;5053438;28;46296;-72
